Time;durP1;ratioP1;P1;durP2;ratioP2;P2;SDS_P1;SDS_P2;PMS_P1;PMS_P2;Temp;Humidity;BMP_temperature;BMP_pressure;BME280_temperature;BME280_humidity;BME280_pressure;Samples;Min_cycle;Max_cycle;Signal;HPM_P1;HPM_P2
2021/03/29 00:02:06;;;;;;;5.28;1.98;;;8.50;93.00;;;;;;5028250;28;20108;-87
2021/03/29 00:04:32;;;;;;;9.43;2.38;;;8.50;92.80;;;;;;5022364;28;20056;-85
2021/03/29 00:07:00;;;;;;;8.65;1.90;;;8.40;92.80;;;;;;5048790;28;20029;-86
2021/03/29 00:09:29;;;;;;;8.02;1.90;;;8.40;93.00;;;;;;5043018;28;20048;-86
2021/03/29 00:11:56;;;;;;;7.57;2.20;;;8.40;93.20;;;;;;5042095;28;20025;-86
2021/03/29 00:14:23;;;;;;;5.45;1.95;;;8.40;93.40;;;;;;5037018;28;20036;-86
2021/03/29 00:16:50;;;;;;;7.70;2.08;;;8.40;93.40;;;;;;5023451;28;20029;-85
2021/03/29 00:19:16;;;;;;;10.38;2.20;;;8.40;93.50;;;;;;5033443;28;20044;-87
2021/03/29 00:21:42;;;;;;;8.57;2.80;;;8.40;93.70;;;;;;5032243;28;20017;-87
2021/03/29 00:24:08;;;;;;;8.88;2.05;;;8.40;94.00;;;;;;5038076;28;20553;-86
2021/03/29 00:26:36;;;;;;;5.43;2.15;;;8.40;93.90;;;;;;5021498;28;20030;-86
2021/03/29 00:29:02;;;;;;;8.98;2.85;;;8.30;94.20;;;;;;5020179;28;20091;-87
2021/03/29 00:31:28;;;;;;;5.72;1.98;;;8.40;94.60;;;;;;5024450;28;20045;-86
2021/03/29 00:33:55;;;;;;;6.90;1.80;;;8.40;94.20;;;;;;5027743;28;20014;-86
2021/03/29 00:36:23;;;;;;;7.47;1.85;;;8.30;94.30;;;;;;5017343;28;20029;-86
2021/03/29 00:38:50;;;;;;;7.45;2.03;;;8.30;94.60;;;;;;5048319;28;20025;-86
2021/03/29 00:41:17;;;;;;;8.57;1.90;;;8.30;93.80;;;;;;5021896;28;20029;-86
2021/03/29 00:43:44;;;;;;;9.02;1.98;;;8.20;93.90;;;;;;5025603;28;20025;-86
2021/03/29 00:46:13;;;;;;;5.57;2.13;;;8.20;93.70;;;;;;5028378;28;20638;-87
2021/03/29 00:48:39;;;;;;;7.20;2.25;;;8.20;92.80;;;;;;5027329;28;20033;-87
2021/03/29 00:51:10;;;;;;;8.15;2.92;;;8.30;91.70;;;;;;5031338;28;20079;-87
2021/03/29 00:53:38;;;;;;;8.40;3.25;;;8.30;91.30;;;;;;5028050;28;20682;-84
2021/03/29 00:56:05;;;;;;;9.40;3.65;;;8.30;91.90;;;;;;5025323;28;20360;-87
2021/03/29 00:58:32;;;;;;;4.95;1.80;;;8.20;91.80;;;;;;5023714;28;20033;-86
2021/03/29 01:01:04;;;;;;;6.55;2.10;;;8.20;91.10;;;;;;5027247;28;20025;-86
2021/03/29 01:03:31;;;;;;;;;;;8.20;91.70;;;;;;5035657;28;20400;-86
2021/03/29 01:06:10;;;;;;;7.72;2.00;;;8.20;91.90;;;;;;5040431;28;19988;-87
2021/03/29 01:08:41;;;;;;;5.00;1.80;;;8.20;91.70;;;;;;5033425;28;20044;-87
2021/03/29 01:11:10;;;;;;;6.97;1.77;;;8.10;92.10;;;;;;5024460;28;20040;-87
2021/03/29 01:13:41;;;;;;;5.80;1.77;;;8.10;91.70;;;;;;5030713;28;20025;-87
2021/03/29 01:16:08;;;;;;;6.72;2.10;;;8.10;92.40;;;;;;5024464;28;20018;-86
2021/03/29 01:18:35;;;;;;;5.57;2.08;;;8.10;93.00;;;;;;5028804;28;20026;-87
2021/03/29 01:21:22;;;;;;;5.80;1.80;;;8.10;92.90;;;;;;5026832;28;20025;-87
2021/03/29 01:23:51;;;;;;;7.28;2.03;;;8.00;93.20;;;;;;5034208;28;20026;-86
2021/03/29 01:26:44;;;;;;;10.10;2.53;;;8.00;92.60;;;;;;5035348;28;20497;-87
2021/03/29 01:29:10;;;;;;;5.22;1.60;;;8.00;92.40;;;;;;5050856;23;20048;-85
2021/03/29 01:31:38;;;;;;;5.57;1.90;;;8.00;91.70;;;;;;5038550;28;20116;-85
2021/03/29 01:34:05;;;;;;;5.18;1.90;;;8.00;92.30;;;;;;5036573;28;20440;-85
2021/03/29 01:36:32;;;;;;;5.68;1.75;;;8.00;93.10;;;;;;5037263;28;20032;-85
2021/03/29 01:38:59;;;;;;;7.50;1.48;;;7.90;93.10;;;;;;5046075;28;20032;-86
2021/03/29 01:41:26;;;;;;;5.70;1.80;;;8.00;93.30;;;;;;5047651;28;20078;-85
2021/03/29 01:43:53;;;;;;;4.25;1.60;;;7.90;93.50;;;;;;5045874;28;20103;-86
2021/03/29 01:46:19;;;;;;;6.10;1.92;;;7.80;93.80;;;;;;5046481;28;20021;-86
2021/03/29 01:48:45;;;;;;;5.18;1.73;;;7.80;93.80;;;;;;5044428;28;20032;-85
2021/03/29 01:51:13;;;;;;;6.35;1.88;;;7.80;94.30;;;;;;5038147;28;20204;-85
2021/03/29 01:53:43;;;;;;;4.32;1.70;;;7.70;94.60;;;;;;5049169;28;20055;-86
2021/03/29 01:56:09;;;;;;;4.43;1.48;;;7.70;95.30;;;;;;5044822;28;20043;-84
2021/03/29 01:58:35;;;;;;;3.95;1.60;;;7.60;95.30;;;;;;5043185;28;20454;-85
2021/03/29 02:01:11;;;;;;;8.75;1.80;;;7.60;95.70;;;;;;5041759;28;20057;-84
2021/03/29 02:03:38;;;;;;;7.22;2.15;;;7.60;95.70;;;;;;5040444;28;20349;-85
2021/03/29 02:06:06;;;;;;;6.68;1.73;;;7.50;96.00;;;;;;5047682;28;20044;-84
2021/03/29 02:08:34;;;;;;;4.50;1.50;;;7.50;96.50;;;;;;5040440;28;20773;-84
2021/03/29 02:11:00;;;;;;;5.72;1.90;;;7.50;96.80;;;;;;5035317;28;20024;-85
2021/03/29 02:13:38;;;;;;;5.28;1.52;;;7.50;96.80;;;;;;5048409;28;20641;-85
2021/03/29 02:16:13;;;;;;;4.78;1.58;;;7.50;97.00;;;;;;5048060;28;20021;-85
2021/03/29 02:18:48;;;;;;;5.78;1.65;;;7.40;97.10;;;;;;5043289;28;20018;-84
2021/03/29 02:21:25;;;;;;;5.70;1.60;;;7.40;97.50;;;;;;5054240;28;20025;-85
2021/03/29 02:23:55;;;;;;;4.75;1.60;;;7.40;97.10;;;;;;5052361;28;20079;-84
2021/03/29 02:26:21;;;;;;;5.22;1.90;;;7.40;97.30;;;;;;5053266;28;20033;-85
2021/03/29 02:28:49;;;;;;;5.22;1.90;;;7.40;97.30;;;;;;5050434;28;20025;-84
2021/03/29 02:31:16;;;;;;;5.63;1.80;;;7.40;97.50;;;;;;5054537;28;20496;-85
2021/03/29 02:33:43;;;;;;;6.88;2.00;;;7.30;97.00;;;;;;5042001;28;20040;-84
2021/03/29 02:36:10;;;;;;;4.78;1.83;;;7.20;97.10;;;;;;5045282;28;20017;-85
2021/03/29 02:38:36;;;;;;;7.85;2.13;;;7.40;97.60;;;;;;5049964;28;20017;-84
2021/03/29 02:41:03;;;;;;;5.78;1.63;;;7.20;97.80;;;;;;5045507;28;20516;-86
2021/03/29 02:43:30;;;;;;;4.97;1.70;;;7.20;97.80;;;;;;5049559;28;20048;-85
2021/03/29 02:46:00;;;;;;;8.02;2.00;;;7.10;98.00;;;;;;5048502;28;20024;-84
2021/03/29 02:48:30;;;;;;;10.30;2.10;;;7.10;98.00;;;;;;5041616;28;20025;-84
2021/03/29 02:50:58;;;;;;;6.65;1.88;;;7.10;98.50;;;;;;5050718;28;20028;-84
2021/03/29 02:53:31;;;;;;;7.25;1.92;;;7.10;97.90;;;;;;5053014;28;20481;-85
2021/03/29 02:56:08;;;;;;;6.53;2.10;;;7.00;98.60;;;;;;5070387;28;20474;-85
2021/03/29 02:58:38;;;;;;;7.75;2.25;;;7.00;98.90;;;;;;5049905;28;20013;-85
2021/03/29 03:01:07;;;;;;;7.53;1.95;;;7.00;99.30;;;;;;5046165;28;20096;-84
2021/03/29 03:03:34;;;;;;;8.02;2.22;;;7.00;99.50;;;;;;5037755;28;20466;-85
2021/03/29 03:06:02;;;;;;;8.40;2.10;;;7.00;99.90;;;;;;5046392;28;20059;-85
2021/03/29 03:08:28;;;;;;;10.88;2.40;;;7.00;99.90;;;;;;5037942;28;20116;-85
2021/03/29 03:10:54;;;;;;;8.57;2.70;;;6.90;99.90;;;;;;5051802;28;20096;-84
2021/03/29 03:13:20;;;;;;;8.35;2.63;;;6.90;99.90;;;;;;5043740;28;20021;-84
2021/03/29 03:15:46;;;;;;;8.50;2.80;;;6.90;99.90;;;;;;5044752;28;20067;-85
2021/03/29 03:18:12;;;;;;;5.30;2.17;;;6.90;99.90;;;;;;5043128;28;20141;-85
2021/03/29 03:20:39;;;;;;;5.40;2.33;;;6.80;99.90;;;;;;5049034;28;20129;-86
2021/03/29 03:23:12;;;;;;;7.47;2.17;;;6.80;99.90;;;;;;5051815;28;20024;-84
2021/03/29 03:25:42;;;;;;;11.75;2.70;;;6.80;99.90;;;;;;5053139;28;20029;-84
2021/03/29 03:28:10;;;;;;;10.10;2.30;;;6.80;99.90;;;;;;5066985;28;20048;-85
2021/03/29 03:30:48;;;;;;;12.02;3.22;;;6.80;99.90;;;;;;5051930;28;20025;-85
2021/03/29 03:33:15;;;;;;;9.10;2.40;;;6.70;99.90;;;;;;5051247;28;20105;-85
2021/03/29 03:35:42;;;;;;;6.68;2.00;;;6.70;99.90;;;;;;5047408;28;20478;-86
2021/03/29 03:38:23;;;;;;;5.63;2.30;;;6.60;99.90;;;;;;5043340;28;20048;-85
2021/03/29 03:41:19;;;;;;;6.22;2.17;;;6.60;99.90;;;;;;5053226;28;20067;-84
2021/03/29 03:43:49;;;;;;;6.15;2.42;;;6.60;99.90;;;;;;5052671;28;20021;-84
2021/03/29 03:46:27;;;;;;;5.63;2.22;;;6.50;99.90;;;;;;5043325;28;20024;-85
2021/03/29 03:48:56;;;;;;;9.32;2.75;;;6.50;99.90;;;;;;5065271;28;20029;-84
2021/03/29 03:51:29;;;;;;;9.30;2.60;;;6.50;99.90;;;;;;5048824;28;20524;-85
2021/03/29 03:53:54;;;;;;;9.77;2.22;;;6.50;99.90;;;;;;5038110;28;20148;-84
2021/03/29 03:56:21;;;;;;;8.45;2.35;;;6.40;99.90;;;;;;5049282;28;20498;-84
2021/03/29 03:58:47;;;;;;;8.38;2.63;;;6.40;99.90;;;;;;5053935;28;20017;-83
2021/03/29 04:01:13;;;;;;;10.50;3.03;;;6.50;99.90;;;;;;5047247;28;20524;-84
2021/03/29 04:03:39;;;;;;;7.85;2.70;;;6.30;99.90;;;;;;5052881;28;20104;-85
2021/03/29 04:06:06;;;;;;;7.43;3.03;;;6.30;99.90;;;;;;5049810;28;20051;-84
2021/03/29 04:08:31;;;;;;;7.93;3.07;;;6.30;99.90;;;;;;5050079;28;20025;-85
2021/03/29 04:10:59;;;;;;;9.13;3.08;;;6.20;99.90;;;;;;5049212;28;20047;-85
2021/03/29 04:13:29;;;;;;;12.47;3.53;;;6.20;99.90;;;;;;5051856;28;20021;-85
2021/03/29 04:15:59;;;;;;;9.07;3.23;;;6.20;99.90;;;;;;5068938;28;20020;-84
2021/03/29 04:18:25;;;;;;;9.20;3.00;;;6.20;99.90;;;;;;5051951;28;20492;-85
2021/03/29 04:20:52;;;;;;;8.00;2.67;;;6.20;99.90;;;;;;5048967;28;20028;-85
2021/03/29 04:23:19;;;;;;;10.43;3.13;;;6.20;99.90;;;;;;5052065;28;20021;-86
2021/03/29 04:25:45;;;;;;;7.30;2.65;;;6.10;99.90;;;;;;5042075;28;20536;-84
2021/03/29 04:28:11;;;;;;;7.70;2.93;;;6.10;99.90;;;;;;5041919;28;20064;-85
2021/03/29 04:30:38;;;;;;;10.03;3.43;;;6.10;99.90;;;;;;5041907;28;20027;-84
2021/03/29 04:33:03;;;;;;;7.40;3.13;;;6.10;99.90;;;;;;5068309;28;20013;-84
2021/03/29 04:35:29;;;;;;;10.13;3.23;;;6.10;99.90;;;;;;5040296;28;20390;-84
2021/03/29 04:37:55;;;;;;;9.85;3.58;;;6.10;99.90;;;;;;5045589;28;20027;-85
2021/03/29 04:40:23;;;;;;;11.57;3.53;;;6.20;99.90;;;;;;5047641;28;20021;-85
2021/03/29 04:42:50;;;;;;;9.03;2.57;;;6.20;99.90;;;;;;5045167;28;20030;-85
2021/03/29 04:45:16;;;;;;;8.65;2.83;;;6.20;99.90;;;;;;5041538;28;20111;-85
2021/03/29 04:47:42;;;;;;;7.53;3.03;;;6.40;99.90;;;;;;5041777;28;20666;-85
2021/03/29 04:50:09;;;;;;;7.82;2.90;;;6.40;99.90;;;;;;5045716;28;20021;-85
2021/03/29 04:52:35;;;;;;;8.18;3.00;;;6.40;99.90;;;;;;5047440;28;20025;-85
2021/03/29 04:55:02;;;;;;;8.07;2.70;;;6.40;99.90;;;;;;5060772;28;20485;-84
2021/03/29 04:57:27;;;;;;;7.93;2.90;;;6.40;99.90;;;;;;5051165;28;20559;-85
2021/03/29 04:59:53;;;;;;;5.85;2.90;;;6.40;99.90;;;;;;5044110;28;20017;-85
2021/03/29 05:02:18;;;;;;;11.60;3.20;;;6.40;99.90;;;;;;5047257;28;20486;-85
2021/03/29 05:04:44;;;;;;;8.33;2.77;;;6.40;99.90;;;;;;5043118;28;20048;-85
2021/03/29 05:07:11;;;;;;;8.07;3.20;;;6.40;99.90;;;;;;5045703;28;20088;-85
2021/03/29 05:09:37;;;;;;;10.07;3.10;;;6.40;99.90;;;;;;5045078;28;20083;-85
2021/03/29 05:12:11;;;;;;;10.27;3.57;;;6.40;99.90;;;;;;5048221;28;20083;-84
2021/03/29 05:14:39;;;;;;;10.93;3.80;;;6.40;99.90;;;;;;5041209;28;20032;-86
2021/03/29 05:17:05;;;;;;;9.23;3.27;;;6.40;99.90;;;;;;5048567;28;20021;-85
2021/03/29 05:19:31;;;;;;;8.37;3.50;;;6.40;99.90;;;;;;5044150;28;20052;-85
2021/03/29 05:21:57;;;;;;;7.83;3.20;;;6.40;99.90;;;;;;5053915;28;20025;-85
2021/03/29 05:24:23;;;;;;;7.82;3.17;;;6.40;99.90;;;;;;5046897;28;20108;-85
2021/03/29 05:26:49;;;;;;;9.10;3.30;;;6.40;99.90;;;;;;5052597;28;20056;-84
2021/03/29 05:29:14;;;;;;;10.52;3.22;;;6.40;99.90;;;;;;5044463;28;20033;-85
2021/03/29 05:31:40;;;;;;;12.32;3.47;;;6.40;99.90;;;;;;5053442;28;20040;-85
2021/03/29 05:34:11;;;;;;;8.37;3.03;;;6.40;99.90;;;;;;5043334;28;20037;-85
2021/03/29 05:36:40;;;;;;;9.97;3.50;;;6.30;99.90;;;;;;5043804;28;20151;-85
2021/03/29 05:39:09;;;;;;;7.90;3.13;;;6.30;99.90;;;;;;5044962;28;20454;-85
2021/03/29 05:41:38;;;;;;;11.47;3.57;;;6.30;99.90;;;;;;5047003;28;20025;-85
2021/03/29 05:44:04;;;;;;;7.20;3.20;;;6.40;99.90;;;;;;5052699;28;20025;-84
2021/03/29 05:46:30;;;;;;;8.93;3.23;;;6.50;99.90;;;;;;5054071;28;20021;-84
2021/03/29 05:48:55;;;;;;;7.90;3.73;;;6.50;99.90;;;;;;5038960;28;20078;-84
2021/03/29 05:51:21;;;;;;;8.25;3.25;;;6.60;99.90;;;;;;5047148;28;20021;-85
2021/03/29 05:53:47;;;;;;;10.93;3.40;;;6.60;99.90;;;;;;5050477;28;20109;-84
2021/03/29 05:56:14;;;;;;;10.32;3.38;;;6.70;99.90;;;;;;5052217;28;20028;-85
2021/03/29 05:58:44;;;;;;;10.63;3.15;;;6.80;99.90;;;;;;5041645;28;20021;-84
2021/03/29 06:01:10;;;;;;;7.50;3.63;;;6.90;99.90;;;;;;5067050;28;20033;-85
2021/03/29 06:03:39;;;;;;;10.53;3.30;;;7.00;99.90;;;;;;5039472;28;20025;-87
2021/03/29 06:06:14;;;;;;;9.00;3.17;;;7.00;99.90;;;;;;5039994;28;20028;-88
2021/03/29 06:08:50;;;;;;;8.30;3.17;;;7.00;99.90;;;;;;5044125;28;20025;-88
2021/03/29 06:11:26;;;;;;;10.38;3.60;;;7.00;99.90;;;;;;5050457;28;20056;-87
2021/03/29 06:14:10;;;;;;;10.80;3.55;;;7.10;99.90;;;;;;5045945;28;20028;-87
2021/03/29 06:16:59;;;;;;;10.18;4.07;;;7.00;99.90;;;;;;5043744;28;20025;-88
2021/03/29 06:19:57;;;;;;;10.10;3.45;;;6.80;99.90;;;;;;5040229;28;20578;-90
2021/03/29 06:22:34;;;;;;;8.37;3.90;;;6.70;99.90;;;;;;5049527;28;20024;-85
2021/03/29 06:25:09;;;;;;;10.70;3.63;;;6.50;99.90;;;;;;5044856;28;20127;-86
2021/03/29 06:27:48;;;;;;;13.53;4.37;;;6.50;99.90;;;;;;5047108;28;20040;-87
2021/03/29 06:30:28;;;;;;;9.43;4.00;;;6.50;99.90;;;;;;5044285;28;20131;-85
2021/03/29 06:33:04;;;;;;;10.27;3.60;;;6.50;99.90;;;;;;5044423;28;20036;-85
2021/03/29 06:35:45;;;;;;;10.55;4.20;;;6.60;99.90;;;;;;5043799;28;20017;-88
2021/03/29 06:38:16;;;;;;;8.10;2.88;;;6.80;99.90;;;;;;5043384;28;20021;-86
2021/03/29 06:41:03;;;;;;;8.52;3.33;;;6.90;99.90;;;;;;5045719;28;20482;-87
2021/03/29 06:43:35;;;;;;;10.05;3.20;;;7.10;99.90;;;;;;5045742;28;20075;-85
2021/03/29 06:46:23;;;;;;;7.47;3.22;;;7.20;99.90;;;;;;5045450;28;20020;-85
2021/03/29 06:48:49;;;;;;;8.73;2.80;;;7.30;99.90;;;;;;5043814;28;20115;-87
2021/03/29 06:51:14;;;;;;;11.05;3.40;;;7.40;99.90;;;;;;5046857;28;20389;-86
2021/03/29 06:53:52;;;;;;;9.68;3.20;;;7.50;99.90;;;;;;5045370;28;20021;-85
2021/03/29 06:56:19;;;;;;;8.40;2.90;;;7.60;99.90;;;;;;5047847;28;20036;-85
2021/03/29 06:58:45;;;;;;;9.10;2.63;;;7.60;99.90;;;;;;5046289;28;20428;-85
2021/03/29 07:01:20;;;;;;;9.10;3.33;;;7.70;99.90;;;;;;5046619;28;20029;-85
2021/03/29 07:03:48;;;;;;;9.15;2.88;;;7.70;99.90;;;;;;5047595;28;20028;-85
2021/03/29 07:06:20;;;;;;;8.32;3.15;;;7.80;99.90;;;;;;5062085;28;20018;-84
2021/03/29 07:08:47;;;;;;;10.90;3.10;;;7.80;99.90;;;;;;5047538;28;20033;-85
2021/03/29 07:11:15;;;;;;;9.73;3.08;;;7.90;99.90;;;;;;5051988;28;20112;-84
2021/03/29 07:13:41;;;;;;;10.48;3.10;;;8.00;99.90;;;;;;5052154;28;20374;-85
2021/03/29 07:16:09;;;;;;;9.05;2.63;;;8.20;99.90;;;;;;5048509;28;20025;-86
2021/03/29 07:18:36;;;;;;;9.13;2.80;;;8.20;99.90;;;;;;5048372;28;20025;-85
2021/03/29 07:21:06;;;;;;;8.45;2.95;;;8.30;99.90;;;;;;5051344;28;20052;-86
2021/03/29 07:23:33;;;;;;;8.68;2.80;;;8.40;99.90;;;;;;5050863;28;20148;-86
2021/03/29 07:25:59;;;;;;;7.97;2.78;;;8.50;99.90;;;;;;5053564;28;20496;-84
2021/03/29 07:28:29;;;;;;;10.75;3.42;;;8.50;99.90;;;;;;5045067;28;20860;-85
2021/03/29 07:30:59;;;;;;;12.00;3.25;;;8.60;99.90;;;;;;5044995;28;20047;-86
2021/03/29 07:33:45;;;;;;;13.07;3.45;;;8.90;99.90;;;;;;5050588;28;20017;-86
2021/03/29 07:36:11;;;;;;;10.20;3.17;;;9.00;99.90;;;;;;5045140;28;20536;-85
2021/03/29 07:38:56;;;;;;;8.95;3.03;;;9.00;99.40;;;;;;5048856;28;20025;-85
2021/03/29 07:41:22;;;;;;;11.27;3.35;;;9.10;99.20;;;;;;5045752;28;20481;-85
2021/03/29 07:44:16;;;;;;;12.05;3.45;;;9.10;99.60;;;;;;5044292;28;20033;-85
2021/03/29 07:46:47;;;;;;;10.65;3.10;;;9.20;99.40;;;;;;5063093;28;20034;-86
2021/03/29 07:49:42;;;;;;;9.65;3.13;;;9.30;99.10;;;;;;5049535;28;20086;-86
2021/03/29 07:52:25;;;;;;;8.25;2.95;;;9.40;98.50;;;;;;5038596;28;20063;-86
2021/03/29 07:54:52;;;;;;;8.30;2.72;;;9.60;97.80;;;;;;5045068;28;20021;-85
2021/03/29 07:57:43;;;;;;;9.18;2.95;;;9.50;96.90;;;;;;5045211;28;20026;-85
2021/03/29 08:00:27;;;;;;;11.02;3.47;;;9.50;96.50;;;;;;5042271;28;20029;-86
2021/03/29 08:03:12;;;;;;;10.88;3.35;;;9.60;96.50;;;;;;5041025;28;20151;-85
2021/03/29 08:05:47;;;;;;;15.70;2.90;;;9.70;96.20;;;;;;5045293;28;20485;-85
2021/03/29 08:08:27;;;;;;;7.15;2.75;;;9.80;96.50;;;;;;5048132;28;20032;-85
2021/03/29 08:11:15;;;;;;;11.48;3.58;;;10.10;96.20;;;;;;5045092;28;20108;-86
2021/03/29 08:13:42;;;;;;;14.02;3.63;;;10.40;96.20;;;;;;5041754;28;20016;-85
2021/03/29 08:16:15;;;;;;;12.27;3.50;;;10.50;95.80;;;;;;5045405;28;20024;-85
2021/03/29 08:19:12;;;;;;;12.90;3.78;;;10.70;95.40;;;;;;5045133;28;20021;-86
2021/03/29 08:22:17;;;;;;;12.95;3.50;;;11.00;95.00;;;;;;5053831;28;20075;-88
2021/03/29 08:24:43;;;;;;;10.65;3.53;;;11.30;94.50;;;;;;5040521;28;20083;-88
2021/03/29 08:27:15;;;;;;;10.57;3.67;;;11.30;94.20;;;;;;5044045;28;20033;-88
2021/03/29 08:29:42;;;;;;;12.70;3.40;;;11.50;94.10;;;;;;5058462;28;20569;-85
2021/03/29 08:32:13;;;;;;;11.60;3.60;;;11.70;92.80;;;;;;5035153;28;20100;-87
2021/03/29 08:34:51;;;;;;;11.07;2.90;;;11.80;92.10;;;;;;5042015;28;20036;-86
2021/03/29 08:37:30;;;;;;;12.00;3.38;;;11.90;91.50;;;;;;5041765;28;20028;-86
2021/03/29 08:39:59;;;;;;;8.07;2.40;;;11.90;90.20;;;;;;5043885;28;20029;-86
2021/03/29 08:42:29;;;;;;;10.10;2.95;;;11.90;90.00;;;;;;5040131;28;20524;-87
2021/03/29 08:44:59;;;;;;;13.73;2.95;;;12.10;90.10;;;;;;5041779;28;20023;-86
2021/03/29 08:47:26;;;;;;;9.57;2.53;;;12.20;90.30;;;;;;5021900;28;20422;-86
2021/03/29 08:49:58;;;;;;;9.60;2.63;;;12.40;89.30;;;;;;5038540;28;20029;-87
2021/03/29 08:52:25;;;;;;;9.90;2.75;;;12.50;87.60;;;;;;5042966;28;20047;-85
2021/03/29 08:54:58;;;;;;;11.57;2.90;;;12.70;88.30;;;;;;5044489;28;20030;-86
2021/03/29 08:57:29;;;;;;;9.45;2.35;;;12.90;88.70;;;;;;5043933;28;20021;-87
2021/03/29 08:59:58;;;;;;;7.72;2.38;;;13.10;83.90;;;;;;5038671;28;20112;-87
2021/03/29 09:02:25;;;;;;;6.97;2.33;;;13.20;83.60;;;;;;5039877;28;20037;-86
2021/03/29 09:04:56;;;;;;;13.32;2.42;;;13.50;83.40;;;;;;5036843;28;20371;-86
2021/03/29 09:07:29;;;;;;;9.60;2.35;;;13.70;82.00;;;;;;5041360;28;20026;-88
2021/03/29 09:09:56;;;;;;;8.77;2.17;;;13.90;81.40;;;;;;5042992;28;20828;-88
2021/03/29 09:12:23;;;;;;;9.23;2.20;;;14.20;77.90;;;;;;5040913;28;20020;-86
2021/03/29 09:14:50;;;;;;;11.07;2.10;;;14.30;75.60;;;;;;5039163;28;20025;-87
2021/03/29 09:17:24;;;;;;;6.90;1.90;;;14.40;73.70;;;;;;5040443;28;20025;-87
2021/03/29 09:19:49;;;;;;;9.82;1.90;;;14.50;71.40;;;;;;5034678;28;20021;-87
2021/03/29 09:22:33;;;;;;;6.18;1.60;;;14.50;70.70;;;;;;5044460;28;20040;-88
2021/03/29 09:24:59;;;;;;;8.23;1.80;;;14.70;70.30;;;;;;5047640;28;20032;-87
2021/03/29 09:27:41;;;;;;;12.82;2.05;;;14.90;68.70;;;;;;5045331;28;20021;-87
2021/03/29 09:30:12;;;;;;;5.70;1.60;;;15.00;69.20;;;;;;5047328;28;20025;-87
2021/03/29 09:32:43;;;;;;;5.20;1.38;;;15.30;67.70;;;;;;5046813;28;20082;-87
2021/03/29 09:35:10;;;;;;;7.95;1.73;;;15.50;64.50;;;;;;5047275;28;20521;-88
2021/03/29 09:37:46;;;;;;;5.82;1.30;;;15.70;65.20;;;;;;5057394;28;20029;-87
2021/03/29 09:40:12;;;;;;;7.32;1.23;;;15.90;62.80;;;;;;5064787;22;20040;-86
2021/03/29 09:42:47;;;;;;;4.93;1.20;;;16.10;61.00;;;;;;5048373;28;20070;-86
2021/03/29 09:45:21;;;;;;;7.25;1.40;;;16.20;57.00;;;;;;5050824;28;20385;-88
2021/03/29 09:48:08;;;;;;;6.93;1.35;;;16.30;58.80;;;;;;5064910;28;20074;-87
2021/03/29 09:50:36;;;;;;;6.05;1.35;;;16.60;59.80;;;;;;5054043;28;20029;-86
2021/03/29 09:53:25;;;;;;;9.00;1.50;;;16.70;57.80;;;;;;5052092;28;20031;-87
2021/03/29 09:55:56;;;;;;;5.53;1.52;;;16.80;56.90;;;;;;5062502;28;20052;-87
2021/03/29 09:58:27;;;;;;;6.95;1.33;;;17.00;55.60;;;;;;5051249;28;20359;-87
2021/03/29 10:00:57;;;;;;;6.88;1.33;;;17.20;56.30;;;;;;5050985;28;20029;-88
2021/03/29 10:03:23;;;;;;;7.07;1.08;;;17.10;53.60;;;;;;5046300;28;20103;-88
2021/03/29 10:05:51;;;;;;;8.98;1.45;;;17.20;54.40;;;;;;5053154;28;20029;-88
2021/03/29 10:08:32;;;;;;;4.45;1.10;;;17.10;53.40;;;;;;5053039;28;20025;-87
2021/03/29 10:11:08;;;;;;;4.65;1.02;;;17.20;52.70;;;;;;5047367;28;20029;-86
2021/03/29 10:13:41;;;;;;;6.88;1.25;;;17.30;53.00;;;;;;5047034;28;20025;-86
2021/03/29 10:16:21;;;;;;;7.28;1.23;;;17.50;52.10;;;;;;5070500;28;20389;-86
2021/03/29 10:18:47;;;;;;;6.68;0.95;;;17.80;52.30;;;;;;5053265;28;20021;-87
2021/03/29 10:21:13;;;;;;;6.95;1.70;;;17.90;51.90;;;;;;5054064;28;20581;-87
2021/03/29 10:23:41;;;;;;;6.30;1.50;;;18.20;51.20;;;;;;5054737;28;20025;-86
2021/03/29 10:26:12;;;;;;;7.05;1.25;;;18.30;50.60;;;;;;5053686;28;20067;-87
2021/03/29 10:28:38;;;;;;;5.30;1.25;;;18.40;49.60;;;;;;5063671;28;20059;-87
2021/03/29 10:31:04;;;;;;;6.00;1.30;;;18.50;49.60;;;;;;5056173;28;20025;-87
2021/03/29 10:33:32;;;;;;;4.93;1.23;;;18.40;49.80;;;;;;5051016;28;20044;-87
2021/03/29 10:36:01;;;;;;;6.07;1.67;;;18.40;48.20;;;;;;5050124;28;20057;-88
2021/03/29 10:38:31;;;;;;;5.28;1.20;;;18.60;48.40;;;;;;5034950;28;20022;-87
2021/03/29 10:40:58;;;;;;;5.85;1.02;;;18.80;47.90;;;;;;5040778;28;20128;-88
2021/03/29 10:43:29;;;;;;;8.32;1.00;;;18.70;46.90;;;;;;5047269;28;20014;-89
2021/03/29 10:46:04;;;;;;;4.95;0.85;;;18.80;47.70;;;;;;5045952;28;20150;-88
2021/03/29 10:48:31;;;;;;;6.60;1.10;;;18.90;47.00;;;;;;5044459;28;20108;-87
2021/03/29 10:50:59;;;;;;;5.43;1.17;;;19.00;47.60;;;;;;5044033;28;20022;-88
2021/03/29 10:53:25;;;;;;;5.88;1.10;;;19.20;47.10;;;;;;5047692;28;20038;-88
2021/03/29 10:55:51;;;;;;;8.18;1.10;;;19.20;46.50;;;;;;5045484;28;20055;-88
2021/03/29 10:58:18;;;;;;;4.45;1.00;;;19.40;46.50;;;;;;5056373;28;20021;-88
2021/03/29 11:00:44;;;;;;;4.18;1.00;;;19.50;45.40;;;;;;5039652;28;20363;-88
2021/03/29 11:03:11;;;;;;;5.93;1.13;;;19.60;45.00;;;;;;5054542;28;20108;-89
2021/03/29 11:05:42;;;;;;;5.40;1.08;;;19.70;44.70;;;;;;5050625;28;20029;-88
2021/03/29 11:08:18;;;;;;;5.60;1.10;;;19.80;46.00;;;;;;5049905;28;20041;-89
2021/03/29 11:10:44;;;;;;;3.78;0.98;;;19.60;43.20;;;;;;5054080;28;20032;-88
2021/03/29 11:13:10;;;;;;;5.65;1.20;;;19.40;43.30;;;;;;5048983;28;20026;-88
2021/03/29 11:15:42;;;;;;;4.07;0.93;;;19.40;44.70;;;;;;5055525;28;20021;-88
2021/03/29 11:18:08;;;;;;;5.53;0.90;;;19.70;44.70;;;;;;5058506;28;20025;-89
2021/03/29 11:20:34;;;;;;;4.32;1.00;;;19.80;43.10;;;;;;5059747;28;20425;-89
2021/03/29 11:23:00;;;;;;;8.65;1.83;;;19.50;42.60;;;;;;5051440;28;20028;-89
2021/03/29 11:25:26;;;;;;;3.90;1.25;;;19.60;43.60;;;;;;5054747;28;20021;-88
2021/03/29 11:27:52;;;;;;;7.00;1.00;;;19.80;44.00;;;;;;5059870;28;20128;-87
2021/03/29 11:30:18;;;;;;;4.57;1.00;;;20.10;43.90;;;;;;5051478;28;20036;-88
2021/03/29 11:32:44;;;;;;;6.70;1.33;;;20.10;42.00;;;;;;5057115;28;20037;-88
2021/03/29 11:35:13;;;;;;;4.72;1.30;;;20.30;41.70;;;;;;5059184;28;20009;-88
2021/03/29 11:37:39;;;;;;;4.60;1.02;;;20.20;42.10;;;;;;5049132;28;20049;-88
2021/03/29 11:40:06;;;;;;;5.38;1.35;;;20.10;41.20;;;;;;5055727;28;20049;-89
2021/03/29 11:42:33;;;;;;;4.90;1.27;;;20.30;41.40;;;;;;5056546;28;20075;-88
2021/03/29 11:44:59;;;;;;;5.53;1.13;;;20.40;42.00;;;;;;5051057;28;20393;-89
2021/03/29 11:47:25;;;;;;;5.45;1.08;;;20.70;41.90;;;;;;5058929;28;20044;-88
2021/03/29 11:49:51;;;;;;;3.67;1.20;;;20.50;40.50;;;;;;5062439;28;20079;-88
2021/03/29 11:52:16;;;;;;;5.20;0.85;;;20.60;40.00;;;;;;5061655;28;20017;-89
2021/03/29 11:54:57;;;;;;;7.15;1.15;;;20.70;39.90;;;;;;5070711;28;20021;-87
2021/03/29 11:57:23;;;;;;;4.78;0.80;;;20.60;39.30;;;;;;5068635;28;20170;-87
2021/03/29 11:59:52;;;;;;;4.50;1.25;;;20.70;39.10;;;;;;5063165;28;20021;-87
2021/03/29 12:02:32;;;;;;;5.10;1.20;;;20.80;39.00;;;;;;5057302;28;20075;-88
2021/03/29 12:05:15;;;;;;;5.63;1.40;;;21.00;37.50;;;;;;5054764;28;20021;-89
2021/03/29 12:13:13;;;;;;;3.42;1.00;;;21.40;38.10;;;;;;5060346;28;20455;-88
2021/03/29 12:15:42;;;;;;;4.90;1.02;;;21.30;37.80;;;;;;5052219;28;20017;-90
2021/03/29 12:18:10;;;;;;;5.63;1.20;;;21.50;38.30;;;;;;5049941;28;20036;-89
2021/03/29 12:20:36;;;;;;;6.88;1.30;;;21.70;38.40;;;;;;5051705;28;20025;-89
2021/03/29 12:23:03;;;;;;;3.40;1.00;;;21.90;38.10;;;;;;5059541;28;20036;-89
2021/03/29 12:25:30;;;;;;;5.95;0.98;;;22.00;37.30;;;;;;5053547;28;20085;-88
2021/03/29 12:27:56;;;;;;;4.60;1.20;;;22.00;37.20;;;;;;5053447;28;20023;-89
2021/03/29 12:30:23;;;;;;;4.32;1.00;;;22.20;36.70;;;;;;5055833;28;20436;-90
2021/03/29 12:32:49;;;;;;;3.70;1.10;;;22.00;36.20;;;;;;5052098;28;20021;-88
2021/03/29 12:35:21;;;;;;;6.35;1.13;;;21.90;35.70;;;;;;5049256;28;20083;-89
2021/03/29 12:37:50;;;;;;;4.45;1.05;;;22.00;36.60;;;;;;5049710;28;20422;-89
2021/03/29 12:40:25;;;;;;;4.20;1.05;;;22.20;37.50;;;;;;5051391;28;20036;-89
2021/03/29 12:45:25;;;;;;;6.43;1.10;;;22.20;36.70;;;;;;5051822;28;20021;-90
2021/03/29 12:47:51;;;;;;;4.97;1.20;;;22.40;36.40;;;;;;5048663;28;20482;-89
2021/03/29 12:50:19;;;;;;;4.47;1.10;;;22.30;35.10;;;;;;5050476;28;20025;-90
2021/03/29 12:52:49;;;;;;;5.55;1.27;;;22.50;36.60;;;;;;5049837;28;20032;-90
2021/03/29 12:55:17;;;;;;;6.63;1.08;;;22.60;36.30;;;;;;5047421;28;20025;-89
2021/03/29 12:57:43;;;;;;;6.03;1.27;;;22.50;36.50;;;;;;5039681;28;20459;-89
2021/03/29 13:00:11;;;;;;;4.70;0.90;;;22.50;35.50;;;;;;5038880;28;20444;-89
2021/03/29 13:02:37;;;;;;;6.07;1.25;;;22.60;36.70;;;;;;5047532;28;20040;-89
2021/03/29 13:05:09;;;;;;;4.43;0.90;;;22.80;35.50;;;;;;5047165;28;20039;-89
2021/03/29 13:07:42;;;;;;;4.63;0.90;;;23.00;35.00;;;;;;5043208;28;20109;-89
2021/03/29 13:10:16;;;;;;;4.15;0.88;;;22.80;35.40;;;;;;5045061;28;20555;-89
2021/03/29 13:12:43;;;;;;;5.10;1.10;;;22.70;35.00;;;;;;5058436;28;20059;-89
2021/03/29 13:15:12;;;;;;;5.53;1.02;;;23.30;34.80;;;;;;5040292;28;20079;-90